Time;durP1;ratioP1;P1;durP2;ratioP2;P2;SDS_P1;SDS_P2;PMS_P1;PMS_P2;Temp;Humidity;BMP_temperature;BMP_pressure;BME280_temperature;BME280_humidity;BME280_pressure;Samples;Min_cycle;Max_cycle;Signal;HPM_P1;HPM_P2
2022/02/10 00:04:20;;;;;;;30.98;4.32;;;4.00;99.90;;;;;;5059699;28;20443;-70
2022/02/10 00:17:39;;;;;;;62.75;4.70;;;4.00;99.90;;;;;;5059544;28;19904;-71
2022/02/10 00:20:17;;;;;;;33.40;5.13;;;4.10;99.90;;;;;;5059824;28;20025;-71
2022/02/10 00:23:06;;;;;;;61.22;5.95;;;4.10;99.90;;;;;;5059496;28;20024;-70
2022/02/10 00:36:28;;;;;;;27.90;4.22;;;4.10;99.90;;;;;;5059393;28;19931;-70
2022/02/10 00:39:09;;;;;;;49.67;5.32;;;4.10;99.90;;;;;;5059352;28;20032;-70
2022/02/10 00:41:35;;;;;;;29.15;3.97;;;4.20;99.90;;;;;;5059291;28;20408;-70
2022/02/10 00:44:01;;;;;;;44.03;5.45;;;4.10;99.90;;;;;;5059566;28;20021;-70
2022/02/10 00:46:26;;;;;;;43.42;4.88;;;4.00;99.90;;;;;;5059536;28;20047;-70
2022/02/10 00:48:52;;;;;;;38.63;5.53;;;4.00;99.90;;;;;;5059207;28;20099;-70
2022/02/10 00:51:17;;;;;;;34.67;3.55;;;4.00;99.90;;;;;;5057157;28;20086;-70
2022/02/10 00:53:45;;;;;;;44.83;5.07;;;3.90;99.90;;;;;;5056097;28;20021;-70
2022/02/10 00:56:12;;;;;;;36.20;4.03;;;4.00;99.90;;;;;;5055928;28;20474;-70
2022/02/10 00:58:41;;;;;;;45.05;5.13;;;3.90;99.90;;;;;;5056590;28;20025;-70
2022/02/10 01:30:31;;;;;;;39.85;5.32;;;3.80;99.90;;;;;;5055893;28;20440;-70
2022/02/10 01:33:00;;;;;;;40.30;5.45;;;3.90;99.90;;;;;;5055653;28;20049;-70
2022/02/10 01:35:27;;;;;;;29.95;4.35;;;3.90;99.90;;;;;;5055213;28;20032;-70
2022/02/10 01:37:53;;;;;;;28.92;4.25;;;3.90;99.90;;;;;;5055270;28;20024;-70
2022/02/10 01:40:49;;;;;;;45.83;5.03;;;3.90;99.90;;;;;;5055423;28;20025;-70
2022/02/10 01:57:43;;;;;;;39.05;4.95;;;3.90;99.90;;;;;;5053595;28;20032;-70
2022/02/10 02:05:32;;;;;;;37.40;4.40;;;4.20;99.90;;;;;;5054820;28;19911;-70
2022/02/10 02:07:59;;;;;;;48.13;5.28;;;4.20;99.90;;;;;;5054702;28;20033;-70
2022/02/10 02:10:25;;;;;;;41.40;4.90;;;4.20;99.90;;;;;;5054567;28;20028;-70
2022/02/10 02:12:50;;;;;;;25.92;3.88;;;4.30;99.90;;;;;;5054835;28;20025;-70
2022/02/10 02:15:16;;;;;;;29.48;3.92;;;4.30;99.90;;;;;;5054469;28;20056;-70
2022/02/10 02:17:41;;;;;;;40.88;4.03;;;4.30;99.90;;;;;;5054494;28;20029;-70
2022/02/10 02:20:07;;;;;;;36.42;4.85;;;4.40;99.90;;;;;;5054430;28;20535;-71
2022/02/10 02:22:33;;;;;;;31.73;3.25;;;4.40;99.90;;;;;;5054607;28;20031;-70
2022/02/10 02:24:58;;;;;;;31.48;3.55;;;4.40;99.90;;;;;;5054309;28;20033;-70
2022/02/10 02:27:26;;;;;;;33.65;3.95;;;4.50;99.90;;;;;;5054481;28;20024;-70
2022/02/10 02:30:07;;;;;;;38.10;4.32;;;4.50;99.90;;;;;;5054270;28;20087;-70
2022/02/10 02:32:37;;;;;;;46.03;4.38;;;4.60;99.90;;;;;;5054720;28;20465;-70
2022/02/10 02:35:38;;;;;;;34.25;4.60;;;4.60;99.90;;;;;;5054622;28;20063;-70
2022/02/10 03:05:30;;;;;;;50.78;4.75;;;4.90;99.90;;;;;;5053895;28;20352;-68
2022/02/10 03:07:57;;;;;;;51.20;5.07;;;4.90;99.90;;;;;;5053660;28;20044;-68
2022/02/10 03:12:58;;;;;;;39.60;5.50;;;5.00;99.90;;;;;;5053842;28;20063;-68
2022/02/10 03:15:42;;;;;;;40.58;5.88;;;5.00;99.90;;;;;;5053178;28;20021;-68
2022/02/10 03:21:46;;;;;;;49.78;5.93;;;5.00;99.90;;;;;;5053345;28;20469;-69
2022/02/10 04:04:52;;;;;;;50.75;9.40;;;5.10;99.90;;;;;;5053281;28;20029;-68
2022/02/10 04:07:34;;;;;;;62.38;9.60;;;5.10;99.90;;;;;;5052745;28;20174;-68
2022/02/10 04:25:38;;;;;;;45.45;8.82;;;5.10;99.90;;;;;;5053378;28;20159;-68
2022/02/10 04:30:59;;;;;;;60.10;10.95;;;5.10;99.90;;;;;;5057045;28;20036;-68
2022/02/10 04:39:38;;;;;;;67.57;12.20;;;5.30;99.90;;;;;;5056946;28;19958;-68
2022/02/10 04:58:03;;;;;;;73.60;14.93;;;5.30;99.90;;;;;;5056303;28;20401;-68
2022/02/10 05:00:41;;;;;;;63.38;17.00;;;5.30;99.90;;;;;;5056058;28;20021;-69
2022/02/10 05:03:55;;;;;;;61.58;15.73;;;5.30;99.90;;;;;;5056491;28;20025;-69
2022/02/10 05:07:00;;;;;;;76.82;16.85;;;5.30;99.90;;;;;;5055635;28;20028;-69
2022/02/10 05:34:07;;;;;;;79.60;16.83;;;5.30;99.90;;;;;;5055661;28;20028;-69
2022/02/10 05:36:05;;;;;;;73.72;15.93;;;5.20;99.90;;;;;;5042018;28;20178;-69
2022/02/10 05:38:55;;;;;;;67.93;16.83;;;5.20;99.90;;;;;;5054759;28;20040;-68
2022/02/10 05:41:53;;;;;;;61.75;14.95;;;5.20;99.90;;;;;;5055015;28;20079;-69
2022/02/10 05:54:47;;;;;;;59.25;12.43;;;5.10;99.90;;;;;;5055295;28;20122;-68
2022/02/10 06:01:02;;;;;;;61.53;12.13;;;5.10;99.90;;;;;;5054910;28;20039;-68
2022/02/10 06:46:12;;;;;;;46.40;7.20;;;4.80;99.90;;;;;;5054329;28;20075;-68
2022/02/10 06:52:32;;;;;;;39.47;6.35;;;4.80;99.90;;;;;;5053720;28;20118;-69
2022/02/10 06:58:11;;;;;;;46.10;6.45;;;4.80;99.90;;;;;;5032470;28;20141;-69
2022/02/10 07:11:44;;;;;;;47.22;6.32;;;4.80;99.90;;;;;;5053830;28;20032;-69
2022/02/10 07:17:17;;;;;;;29.90;5.90;;;4.80;99.90;;;;;;5054038;28;20036;-69
2022/02/10 07:54:22;;;;;;;;;;;4.90;99.90;;;;;;5053976;28;20032;-69
2022/02/10 07:57:00;;;;;;;36.15;6.30;;;4.90;99.90;;;;;;5053590;28;19915;-69
2022/02/10 08:25:56;;;;;;;45.85;7.25;;;5.00;99.90;;;;;;5056953;28;20029;-69
2022/02/10 08:49:44;;;;;;;50.33;8.68;;;5.20;99.90;;;;;;5056960;28;20432;-69
2022/02/10 08:55:19;;;;;;;51.42;5.47;;;5.40;99.90;;;;;;5056401;28;20052;-70
2022/02/10 08:57:55;;;;;;;34.53;3.97;;;5.40;99.90;;;;;;5042595;28;20132;-70
2022/02/10 09:50:11;;;;;;;;;;;7.20;99.90;;;;;;5055727;28;20083;-70
2022/02/10 10:01:46;;;;;;;26.90;3.45;;;7.10;99.90;;;;;;5054850;28;20032;-70
2022/02/10 10:04:32;;;;;;;28.95;3.58;;;7.00;99.90;;;;;;5055132;28;20373;-70
2022/02/10 10:07:21;;;;;;;34.05;3.58;;;7.00;99.90;;;;;;5054806;28;20047;-70
2022/02/10 10:09:59;;;;;;;31.10;3.83;;;6.90;99.90;;;;;;5055033;28;20049;-70
2022/02/10 10:52:28;;;;;;;31.30;4.32;;;6.80;99.90;;;;;;4998933;28;20044;-70
2022/02/10 10:55:11;;;;;;;35.75;3.83;;;6.90;99.90;;;;;;5054213;28;20053;-70
2022/02/10 10:57:39;;;;;;;31.15;4.90;;;6.90;99.90;;;;;;5054364;28;20444;-70
2022/02/10 11:26:35;;;;;;;36.13;4.07;;;7.00;99.90;;;;;;5053475;28;20088;-70
2022/02/10 11:39:55;;;;;;;45.97;5.30;;;7.60;99.90;;;;;;5053294;28;20157;-70
2022/02/10 12:38:53;;;;;;;19.17;2.97;;;7.40;99.90;;;;;;5052752;28;20032;-70
2022/02/10 12:44:00;;;;;;;21.50;2.97;;;7.80;99.90;;;;;;5052710;28;20025;-70
2022/02/10 14:10:38;;;;;;;;;;;6.70;99.90;;;;;;5055236;28;20079;-70
2022/02/10 14:13:17;;;;;;;17.85;3.70;;;6.60;99.90;;;;;;5054495;28;19905;-70
2022/02/10 14:28:38;;;;;;;24.83;2.33;;;6.70;99.90;;;;;;5054973;28;20039;-70
2022/02/10 14:31:04;;;;;;;13.02;3.53;;;6.60;99.90;;;;;;5054442;28;20104;-70
2022/02/10 14:33:34;;;;;;;12.00;2.00;;;6.50;99.90;;;;;;5054285;28;20021;-70
2022/02/10 15:12:01;;;;;;;32.47;3.80;;;6.40;99.90;;;;;;5052900;28;20120;-70
2022/02/10 15:36:15;;;;;;;26.85;3.60;;;5.80;99.90;;;;;;5053597;28;20078;-70
2022/02/10 15:52:16;;;;;;;20.70;4.35;;;5.20;99.90;;;;;;5053108;28;20444;-70
2022/02/10 16:10:56;;;;;;;35.55;10.45;;;4.70;99.90;;;;;;5052922;28;20040;-70
2022/02/10 16:18:48;;;;;;;26.50;3.78;;;4.50;99.90;;;;;;5053193;28;20393;-70
2022/02/10 16:21:25;;;;;;;48.50;9.35;;;4.50;99.90;;;;;;5053561;28;20028;-70
2022/02/10 16:23:58;;;;;;;31.02;4.97;;;4.40;99.90;;;;;;5039142;28;20032;-70
2022/02/10 16:26:33;;;;;;;44.13;10.18;;;4.40;99.90;;;;;;5056797;28;20025;-70
2022/02/10 16:29:01;;;;;;;66.45;14.32;;;4.40;99.90;;;;;;5056706;28;20036;-71
2022/02/10 16:31:27;;;;;;;43.70;7.97;;;4.40;99.90;;;;;;5056576;28;20484;-70
2022/02/10 16:33:52;;;;;;;30.88;5.53;;;4.40;99.90;;;;;;5056601;28;20102;-70
2022/02/10 16:36:18;;;;;;;25.52;3.42;;;4.40;99.90;;;;;;5056462;28;20462;-70
2022/02/10 16:38:45;;;;;;;18.27;3.05;;;4.30;99.90;;;;;;5056806;28;20021;-70
2022/02/10 16:41:13;;;;;;;26.38;4.00;;;4.20;99.90;;;;;;5056550;28;20083;-70
2022/02/10 16:43:39;;;;;;;41.33;4.65;;;4.20;99.90;;;;;;5056377;28;20024;-70
2022/02/10 16:46:04;;;;;;;18.80;3.35;;;4.10;99.90;;;;;;5056343;28;20029;-70
2022/02/10 16:48:33;;;;;;;24.58;5.70;;;4.10;99.90;;;;;;5056835;28;20420;-70
2022/02/10 16:51:00;;;;;;;53.30;10.30;;;4.00;99.90;;;;;;5056072;28;20029;-70
2022/02/10 16:53:27;;;;;;;22.70;5.22;;;3.90;99.90;;;;;;5056199;28;20029;-70
2022/02/10 16:56:07;;;;;;;27.25;5.30;;;3.90;99.90;;;;;;5056109;28;20021;-70
2022/02/10 16:58:42;;;;;;;28.38;5.10;;;3.80;99.90;;;;;;5056434;28;20052;-70
2022/02/10 17:01:26;;;;;;;60.08;12.55;;;3.80;99.90;;;;;;5038129;28;20023;-70
2022/02/10 17:04:20;;;;;;;110.63;20.52;;;3.80;99.90;;;;;;5056307;28;20028;-70
2022/02/10 17:25:37;;;;;;;21.55;3.08;;;3.50;99.90;;;;;;5056201;28;20075;-70
2022/02/10 17:28:06;;;;;;;28.25;3.83;;;3.50;99.90;;;;;;5055555;28;20013;-70
2022/02/10 17:33:51;;;;;;;22.73;3.78;;;3.50;99.90;;;;;;5032921;28;20076;-70
2022/02/10 17:36:29;;;;;;;25.67;3.58;;;3.50;99.90;;;;;;5033620;28;20510;-70
2022/02/10 17:42:02;;;;;;;29.88;3.10;;;3.50;99.90;;;;;;5055324;28;20032;-70
2022/02/10 17:44:37;;;;;;;25.85;3.20;;;3.50;99.90;;;;;;5055363;28;20047;-70
2022/02/10 17:52:20;;;;;;;31.70;3.53;;;3.60;99.90;;;;;;5054980;28;20147;-70
2022/02/10 17:54:47;;;;;;;33.33;3.40;;;3.50;99.90;;;;;;5055050;28;20027;-70
2022/02/10 17:57:14;;;;;;;23.63;2.40;;;3.50;99.90;;;;;;5055217;28;20044;-70
2022/02/10 17:59:40;;;;;;;31.80;3.35;;;3.50;99.90;;;;;;5054940;28;20025;-70
2022/02/10 18:02:06;;;;;;;22.20;3.22;;;3.50;99.90;;;;;;5054930;28;20021;-70
2022/02/10 18:04:32;;;;;;;32.17;4.05;;;3.40;99.90;;;;;;5054891;28;20021;-70
2022/02/10 18:06:59;;;;;;;31.27;3.22;;;3.50;99.90;;;;;;5054861;28;20033;-70
2022/02/10 18:19:57;;;;;;;28.35;4.03;;;3.30;99.90;;;;;;5054876;28;20060;-70
2022/02/10 19:10:19;;;;;;;47.15;4.47;;;3.30;99.90;;;;;;5053996;28;20027;-70
2022/02/10 19:12:48;;;;;;;40.67;4.25;;;3.30;99.90;;;;;;5054174;28;20079;-70
2022/02/10 19:15:19;;;;;;;37.97;4.47;;;3.20;99.90;;;;;;5053875;28;20017;-70
2022/02/10 19:17:46;;;;;;;28.27;4.38;;;3.30;99.90;;;;;;5053613;28;20033;-70
2022/02/10 19:20:13;;;;;;;52.13;5.25;;;3.20;99.90;;;;;;5053517;28;20052;-70
2022/02/10 19:22:40;;;;;;;38.17;4.85;;;3.20;99.90;;;;;;5053407;28;20025;-70
2022/02/10 19:25:08;;;;;;;49.10;5.05;;;3.10;99.90;;;;;;5053461;28;20028;-70
2022/02/10 19:27:35;;;;;;;44.92;5.18;;;3.10;99.90;;;;;;5053413;28;20025;-70
2022/02/10 19:30:01;;;;;;;45.25;5.93;;;3.10;99.90;;;;;;5053395;28;20028;-70
2022/02/10 19:32:30;;;;;;;55.60;7.03;;;3.10;99.90;;;;;;5053320;28;20036;-70
2022/02/10 19:34:58;;;;;;;28.05;5.20;;;3.10;99.90;;;;;;5053611;28;20029;-70
2022/02/10 19:37:25;;;;;;;50.25;8.00;;;3.00;99.90;;;;;;5053797;28;20057;-70
2022/02/10 19:39:58;;;;;;;42.58;6.63;;;3.00;99.90;;;;;;5053532;28;20078;-70
2022/02/10 19:42:27;;;;;;;48.78;5.47;;;3.00;99.90;;;;;;5053292;28;20028;-70
2022/02/10 19:44:59;;;;;;;32.95;4.57;;;3.00;99.90;;;;;;5053173;28;20036;-70
2022/02/10 19:47:30;;;;;;;40.05;5.50;;;2.90;99.90;;;;;;5053495;28;20028;-70
2022/02/10 19:49:56;;;;;;;49.42;5.07;;;3.00;99.90;;;;;;5053496;28;20080;-70
2022/02/10 19:52:23;;;;;;;44.58;4.97;;;3.00;99.90;;;;;;5052996;28;20057;-70
2022/02/10 19:54:51;;;;;;;38.63;6.00;;;3.10;99.90;;;;;;5053124;28;20031;-71
2022/02/10 19:57:19;;;;;;;42.08;4.88;;;3.00;99.90;;;;;;5055059;28;20021;-70
2022/02/10 19:59:45;;;;;;;30.80;4.95;;;3.10;99.90;;;;;;5057414;28;20028;-70
2022/02/10 20:02:11;;;;;;;39.97;5.45;;;3.00;99.90;;;;;;5057111;28;20477;-70
2022/02/10 20:04:36;;;;;;;51.80;5.03;;;3.00;99.90;;;;;;5057160;28;20107;-70
2022/02/10 20:07:02;;;;;;;39.40;4.65;;;3.10;99.90;;;;;;5057645;28;20064;-70
2022/02/10 20:09:28;;;;;;;35.75;4.35;;;3.10;99.90;;;;;;5057204;28;20029;-70
2022/02/10 20:11:55;;;;;;;37.58;4.15;;;3.20;99.90;;;;;;5057221;28;20025;-70
2022/02/10 20:14:22;;;;;;;50.95;4.72;;;3.20;99.90;;;;;;5057242;28;20021;-70
2022/02/10 20:16:53;;;;;;;44.97;5.53;;;3.10;99.90;;;;;;5056941;28;20017;-70
2022/02/10 20:19:19;;;;;;;31.65;4.25;;;3.10;99.90;;;;;;5057198;28;20017;-70
2022/02/10 20:21:44;;;;;;;35.85;4.18;;;3.00;99.90;;;;;;5056990;28;20492;-70
2022/02/10 20:24:10;;;;;;;32.90;3.97;;;3.00;99.90;;;;;;5057163;28;20021;-70
2022/02/10 20:26:36;;;;;;;40.42;4.28;;;3.00;99.90;;;;;;5056767;28;20016;-70
2022/02/10 20:29:02;;;;;;;30.00;4.57;;;2.80;99.90;;;;;;5056702;28;20020;-70
2022/02/10 20:31:29;;;;;;;42.38;3.47;;;2.70;99.90;;;;;;5056852;28;20114;-70
2022/02/10 20:33:55;;;;;;;26.98;3.70;;;2.70;99.90;;;;;;5056822;28;20473;-70
2022/02/10 20:36:21;;;;;;;26.67;4.32;;;2.60;99.90;;;;;;5057038;28;20039;-70
2022/02/10 20:38:49;;;;;;;32.30;4.25;;;2.50;99.90;;;;;;5056790;28;20381;-71
2022/02/10 20:41:17;;;;;;;68.20;17.73;;;2.50;99.90;;;;;;5056407;28;20019;-71
2022/02/10 20:43:45;;;;;;;38.45;6.65;;;2.50;99.90;;;;;;5056543;28;20017;-71
2022/02/10 20:46:15;;;;;;;40.75;11.13;;;2.50;99.90;;;;;;5056372;28;20025;-71
2022/02/10 20:48:42;;;;;;;85.70;28.02;;;2.60;99.90;;;;;;5056309;28;20146;-71
2022/02/10 20:51:12;;;;;;;129.90;40.63;;;2.60;99.90;;;;;;5056373;28;20046;-71
2022/02/10 20:53:40;;;;;;;128.63;43.90;;;2.50;99.90;;;;;;5057086;28;20029;-69
2022/02/10 20:56:08;;;;;;;69.28;24.65;;;2.50;99.90;;;;;;5056123;28;20078;-69
2022/02/10 20:58:34;;;;;;;51.83;16.38;;;2.50;99.90;;;;;;5056133;28;20021;-69
2022/02/10 21:01:02;;;;;;;35.72;7.57;;;2.50;99.90;;;;;;5056415;28;20051;-69
2022/02/10 21:03:31;;;;;;;46.95;5.85;;;2.50;99.90;;;;;;5056056;28;20381;-69
2022/02/10 21:06:06;;;;;;;41.28;5.85;;;2.50;99.90;;;;;;5056002;28;20025;-69
2022/02/10 21:11:09;;;;;;;31.73;5.28;;;2.40;99.90;;;;;;5055901;28;20386;-69
2022/02/10 21:13:34;;;;;;;35.17;4.97;;;2.30;99.90;;;;;;5056187;28;20013;-69
2022/02/10 21:16:00;;;;;;;57.65;5.55;;;2.30;99.90;;;;;;5055761;28;20024;-69
2022/02/10 21:18:27;;;;;;;51.78;13.82;;;2.30;99.90;;;;;;5056121;28;20424;-69
2022/02/10 21:20:58;;;;;;;45.55;9.77;;;2.30;99.90;;;;;;5055654;28;20017;-69
2022/02/10 21:25:53;;;;;;;55.40;10.70;;;2.40;99.90;;;;;;5055951;28;20021;-69
2022/02/10 21:28:22;;;;;;;72.70;12.77;;;2.50;99.90;;;;;;5055581;28;20035;-69
2022/02/10 21:30:51;;;;;;;57.20;5.57;;;2.50;99.90;;;;;;5055463;28;20017;-69
2022/02/10 21:33:30;;;;;;;46.83;5.82;;;2.60;99.90;;;;;;5055532;28;20032;-69
2022/02/10 21:38:58;;;;;;;45.60;4.75;;;2.70;99.90;;;;;;5055992;28;20044;-69
2022/02/10 22:11:02;;;;;;;35.35;4.65;;;3.50;99.90;;;;;;5055075;28;20068;-69
2022/02/10 22:16:41;;;;;;;36.25;5.35;;;3.50;99.90;;;;;;5054939;28;20086;-69
2022/02/10 22:19:11;;;;;;;32.75;5.03;;;3.60;99.90;;;;;;5055007;28;20477;-69
2022/02/10 22:21:44;;;;;;;36.70;5.75;;;3.70;99.90;;;;;;5055127;28;20021;-69
2022/02/10 22:24:13;;;;;;;;;;;3.80;99.90;;;;;;5055390;28;20055;-69
2022/02/10 22:26:40;;;;;;;42.78;3.75;;;3.80;99.90;;;;;;5054529;28;19911;-69
2022/02/10 22:34:23;;;;;;;43.10;5.35;;;3.80;99.90;;;;;;5054660;28;20029;-69
2022/02/10 22:36:55;;;;;;;44.08;4.68;;;3.80;99.90;;;;;;5054490;28;20051;-69
2022/02/10 22:39:21;;;;;;;29.77;5.25;;;3.90;99.90;;;;;;5054250;28;20074;-69
2022/02/10 22:41:46;;;;;;;46.17;4.38;;;3.80;99.90;;;;;;5054419;28;20520;-69
2022/02/10 22:44:12;;;;;;;42.35;3.95;;;3.80;99.90;;;;;;5054158;28;20021;-69
2022/02/10 22:46:39;;;;;;;33.78;4.70;;;3.70;99.90;;;;;;5054403;28;20040;-69
2022/02/10 22:49:05;;;;;;;37.95;5.40;;;3.80;99.90;;;;;;5054181;28;20037;-69
2022/02/10 22:51:32;;;;;;;41.60;5.03;;;3.80;99.90;;;;;;5053983;28;20454;-69
2022/02/10 22:53:59;;;;;;;40.30;4.55;;;3.80;99.90;;;;;;5054007;28;20389;-69
2022/02/10 22:56:29;;;;;;;36.05;4.70;;;3.80;99.90;;;;;;5054083;28;20051;-69
2022/02/10 22:58:59;;;;;;;41.38;5.35;;;3.90;99.90;;;;;;5053864;28;20014;-69
2022/02/10 23:01:26;;;;;;;44.75;6.50;;;4.00;99.90;;;;;;5054117;28;20450;-69
2022/02/10 23:03:52;;;;;;;13.15;3.03;;;4.10;99.90;;;;;;5054085;28;20057;-69
2022/02/10 23:06:17;;;;;;;17.35;2.00;;;4.10;99.90;;;;;;5053735;28;20060;-69
2022/02/10 23:08:43;;;;;;;15.38;1.63;;;4.00;99.90;;;;;;5053761;28;20033;-68
2022/02/10 23:11:13;;;;;;;9.18;1.60;;;3.90;99.90;;;;;;5053903;28;20028;-68
2022/02/10 23:13:46;;;;;;;17.98;2.53;;;3.70;99.90;;;;;;5053734;28;20040;-68
2022/02/10 23:16:13;;;;;;;14.13;2.03;;;3.70;99.90;;;;;;5053698;28;20477;-68
2022/02/10 23:18:40;;;;;;;18.23;3.00;;;3.70;99.90;;;;;;5053863;28;20381;-68
2022/02/10 23:21:10;;;;;;;25.45;2.50;;;3.70;99.90;;;;;;5053836;28;20017;-68
2022/02/10 23:23:37;;;;;;;23.20;2.58;;;3.60;99.90;;;;;;5053491;28;20021;-68
2022/02/10 23:26:05;;;;;;;21.70;2.63;;;3.50;99.90;;;;;;5053739;28;20385;-68
2022/02/10 23:28:37;;;;;;;32.72;4.78;;;3.50;99.90;;;;;;5053415;28;20032;-68
2022/02/10 23:31:06;;;;;;;31.65;3.30;;;3.50;99.90;;;;;;5053090;28;20021;-68
2022/02/10 23:33:35;;;;;;;22.60;2.78;;;3.50;99.90;;;;;;5053408;28;20462;-68
2022/02/10 23:38:40;;;;;;;34.63;3.10;;;3.60;99.90;;;;;;5053939;28;20531;-68
2022/02/10 23:43:35;;;;;;;20.45;2.85;;;3.60;99.90;;;;;;5053560;28;20382;-69
2022/02/10 23:46:00;;;;;;;21.55;2.65;;;3.60;99.90;;;;;;5053216;28;20025;-69
2022/02/10 23:48:28;;;;;;;24.02;3.42;;;3.50;99.90;;;;;;5053242;28;20055;-69
2022/02/10 23:50:54;;;;;;;34.10;3.55;;;3.60;99.90;;;;;;5052927;28;20482;-69
2022/02/10 23:53:19;;;;;;;15.48;2.83;;;3.60;99.90;;;;;;5053275;28;20040;-69
2022/02/10 23:55:47;;;;;;;23.10;3.97;;;3.60;99.90;;;;;;5053166;28;20079;-69
